• Join FlightAware (Why Join?)
  • Login
  • US Flag 
05:51PM EST


 

Airport Tracker/Info


-or-


 

Live Flight TrackerFlight Track Log ✈ SWA686 ✈ 04-Mar-2014 ✈ KHOU - KLAS

Flight Track Log - Related Links

Times and Time Zones

All times are in EST time to prevent confusion due to time zone crossing. See the SWA686 flight status page for this flight to view local times or setup timezone preferences in your user account.

Time Position Orientation Groundspeed Altitude Reporting Facility
EST Latitude Longitude Course Direction KTS MPH feet Rate Location/Type
02:09PM 29.6283 -95.2586 64° Northeast 163 188 1,200  Level Houston Center
02:10PM 29.6422 -95.2258 64° Northeast 194 223 2,200 1,416 Climbing Houston Center
02:11PM 29.6736 -95.2297 354° North 222 255 3,300 1,745 Climbing Houston Center
02:11PM 29.6850 -95.2567 296° West 256 295 3,800 2,852 Climbing Houston Center
02:12PM 29.7133 -95.3189 298° West 258 297 6,200 2,866 Climbing Houston Center
02:12PM 29.7197 -95.3392 290° West 270 311 7,000 3,484 Climbing Houston Center
02:13PM 29.7417 -95.3975 293° West 268 308 9,800 3,493 Climbing Houston Center
02:13PM 29.7489 -95.4269 286° West 253 291 10,900 2,806 Climbing Houston Center
02:14PM 29.7631 -95.4750 289° West 258 297 12,700 2,330 Climbing Houston Center
02:15PM 29.7861 -95.5528 289° West 257 296 14,900 2,049 Climbing Houston Center
02:16PM 29.8103 -95.6372 288° West 271 312 16,900 1,452 Climbing Houston Center
02:17PM 29.8383 -95.7331 289° West 309 356 17,900 1,415 Climbing Houston Center
02:18PM 29.8681 -95.8361 288° West 334 384 19,800 1,951 Climbing Houston Center
02:19PM 29.9061 -95.9656 289° West 350 403 21,900 1,839 Climbing Houston Center
02:20PM 29.9325 -96.0808 285° West 364 419 23,600 1,548 Climbing Houston Center
02:21PM 29.9369 -96.1994 273° West 369 425 25,100 1,452 Climbing Houston Center
02:22PM 29.9433 -96.3206 274° West 376 433 26,600 1,512 Climbing Houston Center
02:23PM 29.9500 -96.4439 274° West 382 440 28,200 1,415 Climbing Houston Center
02:24PM 29.9572 -96.5678 274° West 385 443 29,500 1,403 Climbing Houston Center
02:25PM 29.9886 -96.7197 283° West 408 470 31,100 1,694 Climbing Houston Center
02:26PM 30.0153 -96.8422 284° West 402 463 33,000 1,645 Climbing Houston Center
02:27PM 30.0389 -96.9600 283° West 383 441 34,500 968 Climbing Houston Center
02:28PM 30.0628 -97.0750 284° West 373 429 35,000 341 Climbing Houston Center
02:29PM 30.0883 -97.1931 284° West 377 434 35,200 195 Climbing Houston Center
02:30PM 30.1178 -97.3403 283° West 397 457 35,400 290 Climbing Houston Center
02:31PM 30.1456 -97.4753 283° West 419 482 35,800 290 Climbing Houston Center
02:32PM 30.1722 -97.6094 283° West 420 483 36,000 97 Climbing Houston Center
02:33PM 30.1997 -97.7433 283° West 427 491 36,000  Level Houston Center
02:34PM 30.2283 -97.8892 283° West 424 488 36,000  Level Houston Center
02:35PM 30.2544 -98.0200 283° West 419 482 36,000  Level Houston Center
02:36PM 30.2825 -98.1619 283° West 421 484 36,000  Level Houston Center
02:37PM 30.3083 -98.2919 283° West 420 483 36,000  Level Houston Center
02:39PM 30.3319 -98.4108 283° West 420 483 36,000  Level Houston Center
02:40PM 30.3669 -98.5653 285° West 420 483 36,000  Level Houston Center
02:41PM 30.3956 -98.6983 284° West 420 483 36,000  Level Houston Center
02:42PM 30.4247 -98.8308 284° West 421 484 36,000  Level Houston Center
02:43PM 30.4542 -98.9647 284° West 424 488 36,000  Level Houston Center
02:44PM 30.4833 -99.0994 284° West 424 488 36,000  Level Houston Center
02:45PM 30.5097 -99.2211 284° West 426 490 36,000  Level Houston Center
02:46PM 30.5433 -99.3817 284° West 426 490 36,000  Level Houston Center
02:47PM 30.5725 -99.5128 285° West 426 490 36,000  Level Houston Center
02:48PM 30.5997 -99.6453 283° West 425 489 36,000  Level Houston Center
02:49PM 30.6275 -99.7767 284° West 425 489 36,000  Level Houston Center
02:50PM 30.6561 -99.9081 284° West 424 488 36,000  Level Houston Center
02:51PM 30.6878 -100.0642 283° West 417 480 36,000  Level Houston Center
02:52PM 30.7147 -100.1933 284° West 416 479 36,000  Level Houston Center
02:53PM 30.7403 -100.3217 283° West 415 478 36,000  Level Houston Center
02:54PM 30.7683 -100.4508 284° West 413 475 36,000  Level Houston Center
02:55PM 30.7956 -100.5853 283° West 414 476 36,000  Level Houston Center
02:56PM 30.8264 -100.7389 283° West 416 479 36,000  Level Houston Center
02:57PM 30.8517 -100.8708 283° West 417 480 36,000  Level Houston Center
02:58PM 30.8800 -101.0019 284° West 420 483 36,000  Level Houston Center
02:59PM 30.9044 -101.1342 282° West 420 483 36,000  Level Houston Center
03:00PM 30.9308 -101.2661 283° West 419 482 36,000  Level Houston Center
03:01PM 30.9586 -101.4092 283° West 418 481 36,000  Level Houston Center
03:02PM 30.9847 -101.5403 283° West 417 480 36,000  Level Houston Center
03:03PM 31.0103 -101.6706 283° West 416 479 36,000  Level Houston Center
03:04PM 31.0364 -101.8008 283° West 416 479 36,000  Level Houston Center
03:05PM 31.0667 -101.9606 283° West 416 479 36,000  Level Houston Center
03:06PM 31.0925 -102.0950 283° West 418 481 36,000  Level Houston Center
03:07PM 31.1178 -102.2267 283° West 416 479 36,000  Level Houston Center
03:08PM 31.1283 -102.2903 281° West 420 483 36,000  Level Albuquerque Center
03:09PM 31.1525 -102.4186 282° West 414 476 36,000  Level Albuquerque Center
03:10PM 31.1792 -102.5642 282° West 403 464 36,000  Level Albuquerque Center
03:11PM 31.2025 -102.6864 283° West 389 448 36,000  Level Albuquerque Center
03:12PM 31.2256 -102.8125 282° West 393 452 36,000  Level Albuquerque Center
03:13PM 31.2481 -102.9364 282° West 391 450 36,000  Level Albuquerque Center
03:14PM 31.2706 -103.0583 282° West 387 445 36,000  Level Albuquerque Center
03:15PM 31.2928 -103.1806 282° West 386 444 36,000  Level Albuquerque Center
03:16PM 31.3189 -103.3269 282° West 384 442 36,000  Level Albuquerque Center
03:17PM 31.3414 -103.4467 282° West 381 438 36,000  Level Albuquerque Center
03:18PM 31.3617 -103.5650 281° West 375 432 36,000  Level Albuquerque Center
03:19PM 31.3825 -103.6839 282° West 374 430 36,000  Level Albuquerque Center
03:20PM 31.4017 -103.8003 281° West 373 429 36,000  Level Albuquerque Center
03:21PM 31.4250 -103.9208 283° West 376 433 36,000  Level Albuquerque Center
03:22PM 31.4467 -104.0403 282° West 377 434 36,000  Level Albuquerque Center
03:23PM 31.4703 -104.1814 281° West 374 430 36,000  Level Albuquerque Center
03:24PM 31.4908 -104.3003 281° West 374 430 36,000  Level Albuquerque Center
03:26PM 31.5103 -104.4189 281° West 373 429 36,000  Level Albuquerque Center
03:27PM 31.5319 -104.5383 282° West 376 433 36,000  Level Albuquerque Center
03:28PM 31.5514 -104.6578 281° West 377 434 36,000  Level Albuquerque Center
03:29PM 31.5725 -104.7786 282° West 379 436 36,000  Level Albuquerque Center
03:30PM 31.5967 -104.9233 281° West 380 437 36,000  Level Albuquerque Center
03:31PM 31.6172 -105.0444 281° West 381 438 36,000  Level Albuquerque Center
03:32PM 31.6369 -105.1647 281° West 380 437 36,000  Level Albuquerque Center
03:33PM 31.6558 -105.2839 281° West 376 433 36,000  Level Albuquerque Center
03:34PM 31.6756 -105.4050 281° West 379 436 36,000  Level Albuquerque Center
03:35PM 31.6986 -105.5500 281° West 371 427 36,000  Level Albuquerque Center
03:36PM 31.7181 -105.6647 281° West 371 427 36,000  Level Albuquerque Center
03:37PM 31.7367 -105.7839 280° West 372 428 36,000  Level Albuquerque Center
03:38PM 31.7797 -105.8911 295° West 365 420 36,000  Level Albuquerque Center
03:39PM 31.8317 -105.9944 301° West 367 422 36,000  Level Albuquerque Center
03:40PM 31.8856 -106.1011 301° West 369 425 36,000  Level Albuquerque Center
03:41PM 31.9467 -106.2228 301° West 372 428 36,000  Level Albuquerque Center
03:42PM 31.9992 -106.3267 301° West 369 425 36,000  Level Albuquerque Center
03:43PM 32.0503 -106.4297 300° West 366 421 36,000  Level Albuquerque Center
03:44PM 32.1017 -106.5319 301° West 363 418 36,000  Level Albuquerque Center
03:45PM 32.1531 -106.6339 301° West 362 417 36,000  Level Albuquerque Center
03:46PM 32.2033 -106.7356 300° West 360 414 36,000  Level Albuquerque Center
03:47PM 32.2644 -106.8572 301° West 360 414 36,000  Level Albuquerque Center
03:48PM 32.3264 -106.9583 306° West 358 412 36,000  Level Albuquerque Center
03:49PM 32.3942 -107.0444 313° West 360 414 36,000  Level Albuquerque Center
03:50PM 32.4547 -107.1275 311° West 358 412 36,000  Level Albuquerque Center
03:51PM 32.5239 -107.2192 312° West 359 413 36,000  Level Albuquerque Center
03:52PM 32.5881 -107.3072 311° West 356 410 36,000  Level Albuquerque Center
03:53PM 32.6531 -107.3936 312° West 353 406 36,000  Level Albuquerque Center
03:54PM 32.7200 -107.4864 311° West 351 404 36,000  Level Albuquerque Center
03:55PM 32.7839 -107.5728 311° West 349 402 36,000  Level Albuquerque Center
03:56PM 32.8600 -107.6750 312° West 345 397 36,000  Level Albuquerque Center
03:58PM 32.9231 -107.7611 311° West 346 398 36,000  Level Albuquerque Center
03:59PM 32.9811 -107.8389 312° West 342 394 36,000  Level Albuquerque Center
04:00PM 33.0439 -107.9247 311° West 344 396 36,000  Level Albuquerque Center
04:01PM 33.1200 -108.0292 311° West 348 400 36,000  Level Albuquerque Center
04:02PM 33.1844 -108.1156 312° West 350 403 36,000  Level Albuquerque Center
04:03PM 33.2475 -108.2025 311° West 349 402 36,000  Level Albuquerque Center
04:04PM 33.3106 -108.2892 311° West 348 400 36,000  Level Albuquerque Center
04:05PM 33.3744 -108.3756 312° West 349 402 36,000  Level Albuquerque Center
04:06PM 33.4497 -108.4814 310° West 350 403 36,000  Level Albuquerque Center
04:07PM 33.5142 -108.5706 311° West 353 406 36,000  Level Albuquerque Center
04:08PM 33.5789 -108.6608 311° West 358 412 36,000  Level Albuquerque Center
04:09PM 33.6425 -108.7506 310° West 357 411 36,000  Level Albuquerque Center
04:10PM 33.7058 -108.8406 310° West 356 410 36,000  Level Albuquerque Center
04:11PM 33.7817 -108.9456 311° West 352 405 36,000  Level Albuquerque Center
04:12PM 33.8436 -109.0331 310° West 347 399 36,000  Level Albuquerque Center
04:13PM 33.9058 -109.1203 311° West 346 398 36,000  Level Albuquerque Center
04:14PM 33.9667 -109.2086 310° West 345 397 36,000  Level Albuquerque Center
04:15PM 34.0292 -109.2944 311° West 343 395 36,000  Level Albuquerque Center
04:16PM 34.1031 -109.3997 310° West 344 396 36,000  Level Albuquerque Center
04:17PM 34.1681 -109.4925 310° West 348 400 36,000  Level Albuquerque Center
04:18PM 34.2281 -109.5789 310° West 348 400 36,000  Level Albuquerque Center
04:19PM 34.2975 -109.6783 310° West 348 400 36,000  Level Albuquerque Center
04:20PM 34.3572 -109.7633 310° West 347 399 36,000  Level Albuquerque Center
04:21PM 34.4267 -109.8644 310° West 347 399 36,000  Level Albuquerque Center
04:22PM 34.4867 -109.9506 310° West 348 400 36,000  Level Albuquerque Center
04:23PM 34.5461 -110.0364 310° West 348 400 36,000  Level Albuquerque Center
04:24PM 34.6153 -110.1397 309° West 351 404 36,000  Level Albuquerque Center
04:25PM 34.6758 -110.2261 310° West 351 404 36,000  Level Albuquerque Center
04:26PM 34.7436 -110.3242 310° West 345 397 36,000  Level Albuquerque Center
04:27PM 34.8019 -110.4103 310° West 343 395 36,000  Level Albuquerque Center
04:29PM 34.8692 -110.5100 309° West 341 392 36,000  Level Albuquerque Center
04:30PM 34.9267 -110.5936 310° West 339 390 36,000  Level Albuquerque Center
04:31PM 34.9922 -110.6919 309° West 337 388 36,000  Level Albuquerque Center
04:32PM 35.0439 -110.7686 309° West 336 387 36,000  Level Albuquerque Center
04:33PM 35.1058 -110.8853 303° West 342 394 36,000  Level Albuquerque Center
04:34PM 35.1464 -110.9814 297° West 338 389 36,000  Level Albuquerque Center
04:35PM 35.1614 -111.0858 280° West 320 368 36,000  Level Albuquerque Center
04:36PM 35.1836 -111.1953 284° West 325 374 36,000  Level Albuquerque Center
04:37PM 35.2033 -111.2989 283° West 317 365 36,000 -48 Level Albuquerque Center
04:38PM 35.2239 -111.4003 284° West 311 358 35,900 -1,122 Descending Albuquerque Center
04:39PM 35.2439 -111.5011 284° West 308 354 33,700 -2,732 Descending Albuquerque Center
04:40PM 35.2689 -111.6325 283° West 327 376 30,300 -2,081 Descending Albuquerque Center
04:41PM 35.2903 -111.7431 283° West 353 406 29,400 -919 Descending Albuquerque Center
04:42PM 35.3136 -111.8617 284° West 360 414 28,400 -677 Descending Albuquerque Center
04:43PM 35.3403 -112.0025 283° West 357 411 28,000 -194 Descending Albuquerque Center
04:44PM 35.3639 -112.1233 284° West 364 419 28,000  Level Albuquerque Center
04:45PM 35.3772 -112.1939 283° West 363 418 28,000  Level Los Angeles Center
04:46PM 35.3972 -112.2975 283° West 328 377 28,000  Level Los Angeles Center
04:47PM 35.4164 -112.3997 283° West 312 359 28,000  Level Los Angeles Center
04:48PM 35.4356 -112.5028 283° West 311 358 28,000  Level Los Angeles Center
04:49PM 35.4578 -112.6225 283° West 319 367 28,000  Level Los Angeles Center
04:50PM 35.4786 -112.7367 283° West 338 389 28,000  Level Los Angeles Center
04:51PM 35.4992 -112.8500 283° West 339 390 28,000  Level Los Angeles Center
04:52PM 35.5200 -112.9622 283° West 340 391 28,000  Level Los Angeles Center
04:53PM 35.5453 -113.0967 283° West 336 387 28,000  Level Los Angeles Center
04:54PM 35.5653 -113.2103 282° West 338 389 28,000  Level Los Angeles Center
04:55PM 35.5861 -113.3242 283° West 343 395 28,000 -677 Level Los Angeles Center
04:56PM 35.6056 -113.4356 282° West 341 392 26,600 -1,548 Descending Los Angeles Center
04:57PM 35.6233 -113.5389 282° West 321 369 24,800 -1,548 Descending Los Angeles Center
04:58PM 35.6394 -113.6439 281° West 314 361 23,400 -1,597 Descending Los Angeles Center
04:59PM 35.6575 -113.7761 280° West 328 377 21,500 -1,776 Descending Los Angeles Center
05:00PM 35.6731 -113.8825 280° West 321 369 19,700 -1,776 Descending Los Angeles Center
05:01PM 35.6889 -113.9925 280° West 328 377 17,800 -1,790 Descending Los Angeles Center
05:02PM 35.7033 -114.1044 279° West 333 383 16,000 -1,939 Descending Los Angeles Center
05:03PM 35.7158 -114.1886 280° West 330 380 14,600 -1,839 Descending Los Angeles Center
05:03PM 35.7183 -114.2192 276° West 325 374 14,100 -1,674 Descending Los Angeles Center
05:04PM 35.7372 -114.3406 281° West 322 371 12,200 -1,645 Descending Los Angeles Center
05:04PM 35.7336 -114.3261 107° East 320 368 12,400 -300 Climbing Los Angeles Center
05:05PM 35.7875 -114.4006 312° West 284 327 11,900 -581 Descending Los Angeles Center
05:05PM 35.7936 -114.3986 14° North 295 339 11,800 -984 Descending Los Angeles Center
05:06PM 35.8653 -114.4089 353° North 283 326 10,900 -968 Descending Los Angeles Center
05:06PM 35.8717 -114.4064 18° North 282 325 10,800 -885 Descending Los Angeles Center
05:07PM 35.9467 -114.4158 354° North 271 312 10,000 -762 Descending Los Angeles Center
05:07PM 35.9464 -114.4133 98° East 276 318 10,000  Level Los Angeles Center
05:08PM 36.0086 -114.4214 354° North 231 266 10,000  Level Los Angeles Center
05:08PM 36.0119 -114.4192 28° Northeast 254 292 10,000 -750 Level Los Angeles Center
05:09PM 36.0531 -114.4358 342° North 226 260 9,400 -774 Descending Los Angeles Center
05:09PM 36.0611 -114.4514 303° West 232 267 9,200 -968 Descending Los Angeles Center
05:10PM 36.0739 -114.5192 283° West 239 275 8,400 -968 Descending Los Angeles Center
05:10PM 36.0750 -114.5297 277° West 235 270 8,200 -400 Descending Los Angeles Center
05:11PM 36.0722 -114.5997 267° West 235 270 8,000 -194 Descending Los Angeles Center
05:11PM 36.0731 -114.6256 272° West 234 269 8,000  Level Los Angeles Center
05:12PM 36.0719 -114.6769 268° West 230 265 8,000  Level Los Angeles Center
05:13PM 36.0731 -114.7042 273° West 230 265 8,000  Level Los Angeles Center
05:13PM 36.0725 -114.7569 269° West 230 265 8,000 -190 Level Los Angeles Center
05:14PM 36.0714 -114.7831 267° West 229 264 7,800 -986 Descending Los Angeles Center
05:14PM 36.0739 -114.8522 273° West 225 259 6,800 -1,065 Descending Los Angeles Center
05:15PM 36.0719 -114.8608 254° West 228 262 6,700 -1,418 Descending Los Angeles Center
05:15PM 36.0725 -114.9244 271° West 226 260 5,500 -1,645 Descending Los Angeles Center
05:16PM 36.0739 -114.9486 274° West 235 270 5,000 -1,444 Descending Los Angeles Center
05:16PM 36.0725 -114.9936 268° West 217 250 4,200 -1,258 Descending Los Angeles Center
05:17PM 36.0736 -115.0233 273° West 199 229 3,700 -984 Descending Los Angeles Center
05:17PM 36.0736 -115.0572 270° West 187 215 3,200 -871 Descending Los Angeles Center
05:18PM 36.0736 -115.0853 270° West 184 212 2,800 -774 Descending Los Angeles Center
05:19PM 36.0725 -115.1344 268° West 164 189 2,000 -774 Descending Los Angeles Center
05:21PM 36.0667 -115.1500 270° West  Level FlightAware Approximate